Time;durP1;ratioP1;P1;durP2;ratioP2;P2;SDS_P1;SDS_P2;PMS_P1;PMS_P2;Temp;Humidity;BMP_temperature;BMP_pressure;BME280_temperature;BME280_humidity;BME280_pressure;Samples;Min_cycle;Max_cycle;Signal;HPM_P1;HPM_P2
2023/03/14 00:01:21;;;;;;;;;;;;;;;4.57;52.05;94844.06;4228885;28;19923;-53
2023/03/14 00:03:22;;;;;;;;;;;;;;;4.60;52.51;94830.81;4229480;28;20303;-53
2023/03/14 00:05:24;;;;;;;;;;;;;;;4.70;51.82;94827.38;4226988;28;20560;-50
2023/03/14 00:07:25;;;;;;;;;;;;;;;4.78;51.85;94829.41;4226238;28;19924;-52
2023/03/14 00:09:29;;;;;;;;;;;;;;;4.81;52.22;94829.16;4227592;28;19949;-55
2023/03/14 00:11:31;;;;;;;;;;;;;;;4.88;51.41;94827.75;4228437;28;20389;-52
2023/03/14 00:13:32;;;;;;;;;;;;;;;4.91;50.86;94824.06;4227127;28;19976;-56
2023/03/14 00:15:34;;;;;;;;;;;;;;;4.93;50.69;94820.41;4225277;28;20506;-53
2023/03/14 00:17:36;;;;;;;;;;;;;;;5.01;51.31;94814.59;4227888;28;20002;-55
2023/03/14 00:19:37;;;;;;;;;;;;;;;5.02;51.65;94812.81;4216756;28;19968;-54
2023/03/14 00:21:39;;;;;;;;;;;;;;;5.06;51.21;94812.47;4213834;28;19943;-52
2023/03/14 00:23:41;;;;;;;;;;;;;;;5.08;51.06;94809.75;4229067;28;19968;-52
2023/03/14 00:25:42;;;;;;;;;;;;;;;5.07;51.70;94810.69;4195751;28;20455;-52
2023/03/14 00:27:44;;;;;;;;;;;;;;;5.13;51.33;94808.41;4208222;28;20022;-53
2023/03/14 00:29:45;;;;;;;;;;;;;;;5.11;51.36;94793.91;4199064;28;19963;-52
2023/03/14 00:31:47;;;;;;;;;;;;;;;5.11;51.06;94786.94;4198540;28;19974;-54
2023/03/14 00:33:51;;;;;;;;;;;;;;;5.14;50.83;94791.06;4210674;28;20262;-52
2023/03/14 00:35:56;;;;;;;;;;;;;;;5.14;51.27;94793.66;4209288;28;20010;-49
2023/03/14 00:37:58;;;;;;;;;;;;;;;5.10;50.51;94787.91;4207332;28;19974;-55
2023/03/14 00:39:59;;;;;;;;;;;;;;;5.07;50.97;94782.94;4202123;28;19921;-51
2023/03/14 00:42:01;;;;;;;;;;;;;;;5.09;50.52;94775.03;4200377;28;19920;-52
2023/03/14 00:44:02;;;;;;;;;;;;;;;5.09;51.22;94783.63;4219061;28;20375;-51
2023/03/14 00:46:04;;;;;;;;;;;;;;;5.13;50.99;94787.63;4223791;28;19923;-51
2023/03/14 00:48:05;;;;;;;;;;;;;;;5.11;51.15;94781.75;4211403;28;19924;-52
2023/03/14 00:50:07;;;;;;;;;;;;;;;5.13;51.54;94785.03;4193644;28;19989;-53
2023/03/14 00:52:09;;;;;;;;;;;;;;;5.12;50.42;94780.00;4195593;28;20369;-57
2023/03/14 00:54:10;;;;;;;;;;;;;;;5.01;51.04;94782.59;4211470;28;20090;-50
2023/03/14 00:56:12;;;;;;;;;;;;;;;4.95;51.56;94785.69;4230621;28;20003;-54
2023/03/14 00:58:14;;;;;;;;;;;;;;;4.89;51.87;94787.84;4221801;28;20255;-53
2023/03/14 01:00:16;;;;;;;;;;;;;;;4.78;51.53;94782.69;4208057;28;19951;-52
2023/03/14 01:02:17;;;;;;;;;;;;;;;4.72;51.39;94775.38;4200217;28;20017;-51
2023/03/14 01:04:19;;;;;;;;;;;;;;;4.69;52.14;94773.03;4201224;28;19921;-49
2023/03/14 01:06:24;;;;;;;;;;;;;;;4.69;51.96;94781.63;4198710;28;20015;-52
2023/03/14 01:08:26;;;;;;;;;;;;;;;4.74;52.33;94773.50;4208712;28;19924;-54
2023/03/14 01:10:27;;;;;;;;;;;;;;;4.78;52.15;94772.31;4202958;28;20316;-56
2023/03/14 01:12:29;;;;;;;;;;;;;;;4.79;51.96;94768.75;4226970;28;20393;-54
2023/03/14 01:14:30;;;;;;;;;;;;;;;4.77;51.65;94770.63;4214823;28;20008;-56
2023/03/14 01:16:33;;;;;;;;;;;;;;;4.81;51.98;94766.03;4226874;28;20373;-52
2023/03/14 01:18:35;;;;;;;;;;;;;;;4.81;51.68;94759.06;4231169;28;20002;-50
2023/03/14 01:20:37;;;;;;;;;;;;;;;4.84;51.80;94756.25;4229586;28;19924;-53
2023/03/14 01:22:39;;;;;;;;;;;;;;;4.79;51.71;94744.56;4231119;28;19920;-55
2023/03/14 01:24:41;;;;;;;;;;;;;;;4.80;51.55;94754.84;4231299;28;19924;-54
2023/03/14 01:26:42;;;;;;;;;;;;;;;4.78;51.27;94756.72;4229874;28;19927;-51
2023/03/14 01:28:44;;;;;;;;;;;;;;;4.77;52.15;94752.47;4227152;28;19920;-56
2023/03/14 01:30:45;;;;;;;;;;;;;;;4.77;51.83;94749.06;4228786;28;19931;-57
2023/03/14 01:32:46;;;;;;;;;;;;;;;4.74;51.77;94750.13;4226519;28;19962;-53
2023/03/14 01:34:48;;;;;;;;;;;;;;;4.73;51.78;94735.50;4225678;28;19943;-55
2023/03/14 01:36:49;;;;;;;;;;;;;;;4.72;51.68;94739.03;4227479;28;20390;-52
2023/03/14 01:38:51;;;;;;;;;;;;;;;4.71;51.03;94738.22;4227182;28;20190;-54
2023/03/14 01:40:53;;;;;;;;;;;;;;;4.72;50.56;94739.88;4227959;28;19920;-51
2023/03/14 01:42:57;;;;;;;;;;;;;;;4.68;50.43;94737.63;4214889;28;20568;-51
2023/03/14 01:45:00;;;;;;;;;;;;;;;4.61;51.00;94737.31;4207164;28;19928;-54
2023/03/14 01:47:01;;;;;;;;;;;;;;;4.52;51.33;94735.44;4215889;28;19948;-50
2023/03/14 01:49:03;;;;;;;;;;;;;;;4.46;51.35;94741.13;4203445;28;20323;-57
2023/03/14 01:51:05;;;;;;;;;;;;;;;4.36;51.23;94740.19;4202751;28;20351;-54
2023/03/14 01:53:06;;;;;;;;;;;;;;;4.35;51.10;94728.19;4209847;28;19924;-51
2023/03/14 01:55:19;;;;;;;;;;;;;;;4.36;50.61;94730.63;4181693;28;19990;-55
2023/03/14 01:57:25;;;;;;;;;;;;;;;4.38;50.72;94723.56;4221167;28;19961;-54
2023/03/14 01:59:27;;;;;;;;;;;;;;;4.41;51.40;94725.91;4195748;28;20350;-53
2023/03/14 02:01:28;;;;;;;;;;;;;;;4.42;51.38;94731.91;4184799;28;20010;-54
2023/03/14 02:03:30;;;;;;;;;;;;;;;4.46;51.06;94731.56;4205000;28;19927;-51
2023/03/14 02:05:33;;;;;;;;;;;;;;;4.46;50.55;94726.38;4229552;28;19923;-52
2023/03/14 02:07:34;;;;;;;;;;;;;;;4.45;50.86;94732.50;4212683;28;19924;-52
2023/03/14 02:09:36;;;;;;;;;;;;;;;4.45;50.38;94724.72;4224341;28;19920;-51
2023/03/14 02:11:37;;;;;;;;;;;;;;;4.45;49.93;94718.69;4212735;28;19924;-50
2023/03/14 02:13:39;;;;;;;;;;;;;;;4.39;50.99;94714.84;4210694;28;19978;-53
2023/03/14 02:15:40;;;;;;;;;;;;;;;4.37;51.25;94719.31;4207136;28;19920;-53
2023/03/14 02:17:42;;;;;;;;;;;;;;;4.42;51.67;94713.75;4208607;28;19920;-55
2023/03/14 02:19:56;;;;;;;;;;;;;;;4.46;50.63;94716.00;4191630;28;19920;-54
2023/03/14 02:22:00;;;;;;;;;;;;;;;4.45;50.74;94714.34;4218904;28;19920;-56
2023/03/14 02:24:08;;;;;;;;;;;;;;;4.49;50.84;94710.53;4230690;28;19919;-52
2023/03/14 02:26:17;;;;;;;;;;;;;;;4.51;50.33;94713.84;4230396;28;19920;-54
2023/03/14 02:28:18;;;;;;;;;;;;;;;4.50;50.40;94714.00;4207102;28;19920;-53
2023/03/14 02:30:24;;;;;;;;;;;;;;;4.51;50.50;94713.03;4209075;28;20002;-55
2023/03/14 02:32:26;;;;;;;;;;;;;;;4.50;50.60;94722.59;4213455;28;19920;-54
2023/03/14 02:34:28;;;;;;;;;;;;;;;4.50;50.88;94712.22;4194622;28;19959;-51
2023/03/14 02:36:29;;;;;;;;;;;;;;;4.48;50.89;94724.47;4191287;28;19924;-55
2023/03/14 02:38:43;;;;;;;;;;;;;;;4.41;50.97;94715.53;4194482;28;20433;-51
2023/03/14 02:40:45;;;;;;;;;;;;;;;4.33;51.19;94720.50;4184971;28;19920;-53
2023/03/14 02:42:46;;;;;;;;;;;;;;;4.22;51.62;94723.13;4196403;28;19928;-54
2023/03/14 02:44:55;;;;;;;;;;;;;;;4.14;51.62;94725.47;4203938;28;20384;-50
2023/03/14 02:46:57;;;;;;;;;;;;;;;4.15;52.49;94727.13;4183410;28;19974;-55
2023/03/14 02:49:02;;;;;;;;;;;;;;;4.13;51.53;94729.00;4184278;28;19920;-51
2023/03/14 02:51:04;;;;;;;;;;;;;;;4.10;52.25;94722.28;4173979;28;19924;-53
2023/03/14 02:53:05;;;;;;;;;;;;;;;4.03;51.62;94732.31;4204457;28;19927;-49
2023/03/14 02:55:07;;;;;;;;;;;;;;;3.80;53.07;94723.69;4200636;28;19939;-53
2023/03/14 02:57:09;;;;;;;;;;;;;;;3.72;53.40;94728.63;4201582;28;20018;-51
2023/03/14 02:59:10;;;;;;;;;;;;;;;3.73;52.56;94721.72;4207861;28;19920;-55
2023/03/14 03:01:12;;;;;;;;;;;;;;;3.75;52.62;94725.00;4203710;28;20273;-50
2023/03/14 03:03:14;;;;;;;;;;;;;;;3.69;53.11;94727.13;4213199;28;20305;-57
2023/03/14 03:05:15;;;;;;;;;;;;;;;3.68;53.36;94729.84;4211122;28;19920;-51
2023/03/14 03:07:17;;;;;;;;;;;;;;;3.67;53.33;94723.81;4212370;28;19924;-52
2023/03/14 03:09:18;;;;;;;;;;;;;;;3.63;53.14;94732.75;4188604;28;20921;-53
2023/03/14 03:11:20;;;;;;;;;;;;;;;3.49;53.50;94735.59;4190337;28;19921;-53
2023/03/14 03:13:22;;;;;;;;;;;;;;;3.41;53.70;94727.56;4189832;28;19971;-54
2023/03/14 03:15:23;;;;;;;;;;;;;;;3.44;53.74;94719.53;4209885;28;19920;-55
2023/03/14 03:17:25;;;;;;;;;;;;;;;3.38;53.53;94727.81;4200089;28;20419;-51
2023/03/14 03:19:26;;;;;;;;;;;;;;;3.26;53.97;94727.75;4199252;28;19966;-54
2023/03/14 03:21:28;;;;;;;;;;;;;;;3.20;54.09;94727.38;4211193;28;19920;-55
2023/03/14 03:23:29;;;;;;;;;;;;;;;3.00;54.79;94727.09;4213165;28;19955;-54
2023/03/14 03:25:31;;;;;;;;;;;;;;;2.74;55.57;94723.81;4213153;28;20313;-52
2023/03/14 03:27:33;;;;;;;;;;;;;;;2.60;56.32;94736.91;4186599;28;19944;-51
2023/03/14 03:29:35;;;;;;;;;;;;;;;2.43;57.16;94726.03;4194181;28;19932;-52
2023/03/14 03:31:37;;;;;;;;;;;;;;;2.36;56.85;94727.38;4229276;28;19961;-54
2023/03/14 03:33:38;;;;;;;;;;;;;;;2.01;57.29;94722.91;4229520;28;19970;-54
2023/03/14 03:35:47;;;;;;;;;;;;;;;1.89;58.26;94722.94;4227856;28;19973;-52
2023/03/14 03:37:49;;;;;;;;;;;;;;;1.74;58.74;94729.97;4196009;28;20022;-52
2023/03/14 03:39:51;;;;;;;;;;;;;;;1.75;58.78;94727.31;4196486;28;19942;-52
2023/03/14 03:41:52;;;;;;;;;;;;;;;1.88;58.62;94719.53;4200383;28;19923;-54
2023/03/14 03:43:54;;;;;;;;;;;;;;;1.88;58.42;94727.28;4213049;28;19920;-53
2023/03/14 03:45:56;;;;;;;;;;;;;;;1.92;57.95;94728.72;4212474;28;19919;-51
2023/03/14 03:47:57;;;;;;;;;;;;;;;1.73;58.55;94729.16;4196127;28;19986;-54
2023/03/14 03:49:59;;;;;;;;;;;;;;;1.78;59.03;94734.00;4194681;28;19925;-55
2023/03/14 03:52:00;;;;;;;;;;;;;;;1.77;59.12;94738.34;4195788;28;19920;-52
2023/03/14 03:54:02;;;;;;;;;;;;;;;1.70;59.09;94749.19;4196352;28;20677;-56
2023/03/14 03:56:03;;;;;;;;;;;;;;;1.39;59.81;94740.94;4199619;28;20010;-51
2023/03/14 03:58:05;;;;;;;;;;;;;;;1.57;60.06;94736.28;4205264;28;19920;-53
2023/03/14 04:00:10;;;;;;;;;;;;;;;1.77;59.29;94742.69;4210896;28;20406;-50
2023/03/14 04:02:11;;;;;;;;;;;;;;;2.03;58.19;94733.16;4195992;28;19920;-56
2023/03/14 04:04:13;;;;;;;;;;;;;;;2.27;57.58;94730.63;4202374;28;20422;-56
2023/03/14 04:06:15;;;;;;;;;;;;;;;2.50;56.69;94735.94;4198105;28;19928;-49
2023/03/14 04:08:17;;;;;;;;;;;;;;;2.69;56.69;94731.09;4195978;28;20022;-52
2023/03/14 04:10:18;;;;;;;;;;;;;;;2.80;56.27;94731.13;4199824;28;19966;-51
2023/03/14 04:12:20;;;;;;;;;;;;;;;2.93;55.71;94728.47;4194596;28;19924;-52
2023/03/14 04:14:21;;;;;;;;;;;;;;;2.91;55.56;94725.19;4206706;28;20013;-53
2023/03/14 04:16:23;;;;;;;;;;;;;;;2.99;54.69;94732.38;4212305;28;19924;-55
2023/03/14 04:18:25;;;;;;;;;;;;;;;3.06;54.85;94728.41;4220202;28;20394;-52
2023/03/14 04:20:27;;;;;;;;;;;;;;;3.12;54.50;94721.94;4207934;28;19951;-52
2023/03/14 04:22:28;;;;;;;;;;;;;;;3.21;54.07;94708.34;4210450;28;19942;-53
2023/03/14 04:24:30;;;;;;;;;;;;;;;3.23;54.12;94703.88;4197000;28;19927;-49
2023/03/14 04:26:31;;;;;;;;;;;;;;;3.24;53.41;94708.91;4195626;28;19925;-53
2023/03/14 04:28:33;;;;;;;;;;;;;;;3.29;53.98;94703.38;4205146;28;19920;-52
2023/03/14 04:30:34;;;;;;;;;;;;;;;3.32;53.64;94700.59;4211458;28;19942;-52
2023/03/14 04:32:36;;;;;;;;;;;;;;;3.39;53.68;94698.34;4195977;28;20371;-53
2023/03/14 04:34:38;;;;;;;;;;;;;;;3.42;53.59;94695.53;4177676;28;20023;-51
2023/03/14 04:36:39;;;;;;;;;;;;;;;3.44;53.88;94694.50;4203767;28;19942;-55
2023/03/14 04:38:42;;;;;;;;;;;;;;;3.51;53.48;94688.81;4225271;28;19920;-56
2023/03/14 04:40:44;;;;;;;;;;;;;;;3.56;53.43;94687.53;4222288;28;19943;-53
2023/03/14 04:42:45;;;;;;;;;;;;;;;3.62;52.91;94681.91;4208637;28;19923;-53
2023/03/14 04:44:49;;;;;;;;;;;;;;;3.64;53.31;94680.03;4204630;28;19924;-55
2023/03/14 04:46:50;;;;;;;;;;;;;;;3.66;53.35;94688.50;4195119;28;19920;-54
2023/03/14 04:48:52;;;;;;;;;;;;;;;3.65;52.49;94680.84;4195425;28;20023;-52
2023/03/14 04:50:53;;;;;;;;;;;;;;;3.61;53.35;94675.06;4222076;28;19919;-56
2023/03/14 04:52:55;;;;;;;;;;;;;;;3.62;52.97;94674.13;4228639;28;19974;-53
2023/03/14 04:54:56;;;;;;;;;;;;;;;3.66;53.81;94674.72;4221264;28;19974;-56
2023/03/14 04:56:58;;;;;;;;;;;;;;;3.73;53.41;94675.91;4212157;28;20328;-53
2023/03/14 04:59:00;;;;;;;;;;;;;;;3.74;52.75;94667.16;4202813;28;19919;-50
2023/03/14 05:01:03;;;;;;;;;;;;;;;3.72;53.08;94673.41;4205034;28;19928;-56
2023/03/14 05:03:04;;;;;;;;;;;;;;;3.75;53.40;94679.19;4216621;28;19993;-52
2023/03/14 05:05:06;;;;;;;;;;;;;;;3.75;53.10;94666.25;4227864;28;20396;-52
2023/03/14 05:07:07;;;;;;;;;;;;;;;3.83;53.22;94678.59;4219069;28;19924;-53
2023/03/14 05:09:09;;;;;;;;;;;;;;;3.89;53.48;94675.53;4203523;28;20019;-54
2023/03/14 05:11:11;;;;;;;;;;;;;;;3.80;53.32;94676.25;4212410;28;20400;-53
2023/03/14 05:13:13;;;;;;;;;;;;;;;3.79;53.05;94678.03;4193856;28;19920;-55
2023/03/14 05:15:14;;;;;;;;;;;;;;;3.85;53.07;94674.97;4207553;28;19927;-54
2023/03/14 05:17:16;;;;;;;;;;;;;;;3.95;52.35;94674.22;4196058;28;20546;-55
2023/03/14 05:19:17;;;;;;;;;;;;;;;3.69;52.56;94677.88;4201323;28;19952;-54
2023/03/14 05:21:19;;;;;;;;;;;;;;;3.48;53.19;94677.78;4223213;28;20358;-55
2023/03/14 05:23:20;;;;;;;;;;;;;;;3.49;53.41;94670.84;4209849;28;19978;-55
2023/03/14 05:25:22;;;;;;;;;;;;;;;3.64;53.42;94674.84;4227432;28;20338;-54
2023/03/14 05:27:23;;;;;;;;;;;;;;;3.78;53.40;94667.75;4228008;28;19919;-56
2023/03/14 05:29:25;;;;;;;;;;;;;;;3.93;52.38;94670.94;4226504;28;19920;-54
2023/03/14 05:31:26;;;;;;;;;;;;;;;4.07;52.76;94668.09;4226819;28;19920;-55
2023/03/14 05:33:28;;;;;;;;;;;;;;;4.21;51.77;94667.81;4226463;28;20030;-55
2023/03/14 05:35:29;;;;;;;;;;;;;;;4.26;51.58;94670.91;4224315;28;19966;-57
2023/03/14 05:37:31;;;;;;;;;;;;;;;4.23;51.83;94665.94;4223359;28;19924;-54
2023/03/14 05:39:32;;;;;;;;;;;;;;;4.19;51.67;94664.53;4226384;28;19920;-54
2023/03/14 05:41:35;;;;;;;;;;;;;;;4.17;51.77;94666.41;4223178;28;19925;-57
2023/03/14 05:43:37;;;;;;;;;;;;;;;4.23;51.28;94667.72;4221759;28;19923;-56
2023/03/14 05:45:38;;;;;;;;;;;;;;;4.31;50.57;94673.13;4223352;28;19924;-53
2023/03/14 05:47:40;;;;;;;;;;;;;;;4.35;50.83;94677.13;4230361;28;19924;-52
2023/03/14 05:49:41;;;;;;;;;;;;;;;4.41;50.60;94671.44;4231122;28;19973;-56
2023/03/14 05:51:43;;;;;;;;;;;;;;;4.47;50.36;94670.13;4230547;28;20293;-58
2023/03/14 05:53:44;;;;;;;;;;;;;;;4.51;50.84;94661.16;4223759;28;19920;-55
2023/03/14 05:55:46;;;;;;;;;;;;;;;4.54;50.26;94663.50;4215875;28;19926;-53
2023/03/14 05:57:47;;;;;;;;;;;;;;;4.60;50.41;94667.38;4202212;28;19920;-57
2023/03/14 05:59:48;;;;;;;;;;;;;;;4.58;50.05;94666.66;4217215;28;20353;-53
2023/03/14 06:01:50;;;;;;;;;;;;;;;4.44;50.30;94673.78;4214194;28;19927;-59
2023/03/14 06:03:51;;;;;;;;;;;;;;;4.54;50.16;94665.25;4198364;28;20038;-55
2023/03/14 06:05:53;;;;;;;;;;;;;;;4.58;50.07;94661.47;4197692;28;19921;-53
2023/03/14 06:07:54;;;;;;;;;;;;;;;4.61;49.89;94666.44;4207941;28;20316;-52
2023/03/14 06:09:56;;;;;;;;;;;;;;;4.61;50.45;94664.66;4202144;28;19924;-55
2023/03/14 06:11:57;;;;;;;;;;;;;;;4.66;50.20;94662.50;4211011;28;19951;-55
2023/03/14 06:13:59;;;;;;;;;;;;;;;4.73;50.35;94660.22;4205702;28;20007;-55
2023/03/14 06:16:00;;;;;;;;;;;;;;;4.72;49.98;94662.00;4185070;28;19920;-56
2023/03/14 06:18:02;;;;;;;;;;;;;;;4.67;49.92;94665.94;4212093;28;19926;-57
2023/03/14 06:20:03;;;;;;;;;;;;;;;4.51;50.72;94661.16;4202789;28;19928;-55
2023/03/14 06:22:05;;;;;;;;;;;;;;;4.56;51.00;94664.22;4199037;28;19921;-58
2023/03/14 06:24:06;;;;;;;;;;;;;;;4.50;51.17;94665.50;4210762;28;19962;-55
2023/03/14 06:26:08;;;;;;;;;;;;;;;4.40;51.18;94669.78;4202506;28;19949;-53
2023/03/14 06:28:10;;;;;;;;;;;;;;;4.36;51.51;94680.53;4199947;28;19982;-55
2023/03/14 06:30:11;;;;;;;;;;;;;;;3.91;52.49;94684.00;4199679;28;20386;-54
2023/03/14 06:32:13;;;;;;;;;;;;;;;3.73;52.95;94685.44;4211163;28;20289;-55
2023/03/14 06:34:14;;;;;;;;;;;;;;;3.48;53.70;94679.53;4217213;28;19975;-52
2023/03/14 06:36:16;;;;;;;;;;;;;;;3.48;53.54;94676.94;4212306;28;19973;-59
2023/03/14 06:38:17;;;;;;;;;;;;;;;3.63;53.37;94668.00;4207221;28;19920;-56
2023/03/14 06:40:19;;;;;;;;;;;;;;;3.88;52.72;94668.72;4199955;28;19931;-55
2023/03/14 06:42:21;;;;;;;;;;;;;;;4.16;52.80;94661.38;4207758;28;19920;-55
2023/03/14 06:44:22;;;;;;;;;;;;;;;4.44;51.82;94665.19;4200603;28;19968;-55
2023/03/14 06:46:24;;;;;;;;;;;;;;;4.78;50.78;94654.69;4199996;28;20364;-56
2023/03/14 06:48:25;;;;;;;;;;;;;;;4.84;49.56;94652.41;4207614;28;20015;-53
2023/03/14 06:50:27;;;;;;;;;;;;;;;4.86;49.83;94650.53;4196682;28;20326;-56
2023/03/14 06:52:28;;;;;;;;;;;;;;;5.08;49.71;94648.75;4195870;28;19920;-53
2023/03/14 06:54:30;;;;;;;;;;;;;;;5.33;50.09;94643.16;4200207;28;19919;-57
2023/03/14 06:56:31;;;;;;;;;;;;;;;5.29;48.23;94643.53;4208010;28;19963;-56
2023/03/14 06:58:33;;;;;;;;;;;;;;;5.24;48.53;94632.72;4198837;28;19928;-55
2023/03/14 07:00:35;;;;;;;;;;;;;;;5.31;50.16;94633.84;4210661;28;20281;-58
2023/03/14 07:02:36;;;;;;;;;;;;;;;5.47;49.69;94628.19;4207023;28;19925;-52
2023/03/14 07:04:43;;;;;;;;;;;;;;;5.63;48.53;94627.69;4196506;28;19920;-56
2023/03/14 07:06:46;;;;;;;;;;;;;;;5.67;48.45;94637.69;4179049;28;20510;-53
2023/03/14 07:08:47;;;;;;;;;;;;;;;5.83;49.05;94629.44;4191298;28;19927;-56
2023/03/14 07:10:49;;;;;;;;;;;;;;;5.90;47.98;94622.75;4197228;28;19931;-58
2023/03/14 07:12:52;;;;;;;;;;;;;;;5.92;47.88;94627.81;4219428;28;20334;-57
2023/03/14 07:14:53;;;;;;;;;;;;;;;5.90;47.82;94632.31;4227494;28;20354;-56
2023/03/14 07:16:56;;;;;;;;;;;;;;;5.70;48.19;94627.06;4228804;28;19926;-58
2023/03/14 07:18:58;;;;;;;;;;;;;;;5.79;48.06;94635.84;4203198;28;20460;-56
2023/03/14 07:21:00;;;;;;;;;;;;;;;5.90;47.91;94627.94;4223244;28;19969;-55
2023/03/14 07:23:02;;;;;;;;;;;;;;;6.05;46.96;94633.63;4225895;28;19950;-59
2023/03/14 07:25:05;;;;;;;;;;;;;;;6.17;47.25;94623.09;4229718;28;19943;-55
2023/03/14 07:27:06;;;;;;;;;;;;;;;6.03;47.21;94634.72;4228660;28;19920;-58
2023/03/14 07:29:11;;;;;;;;;;;;;;;6.19;46.79;94623.78;4226953;28;20373;-59
2023/03/14 07:31:13;;;;;;;;;;;;;;;6.29;47.18;94619.44;4216510;28;19982;-56
2023/03/14 07:33:15;;;;;;;;;;;;;;;6.46;46.63;94616.16;4228206;28;20427;-54
2023/03/14 07:35:17;;;;;;;;;;;;;;;6.68;46.17;94615.06;4226752;28;19934;-55
2023/03/14 07:37:18;;;;;;;;;;;;;;;6.88;45.37;94608.09;4224632;28;19930;-55
2023/03/14 07:39:20;;;;;;;;;;;;;;;7.04;44.84;94606.69;4228315;28;20377;-59
2023/03/14 07:41:22;;;;;;;;;;;;;;;7.11;44.57;94607.78;4227027;28;19926;-57
2023/03/14 07:43:24;;;;;;;;;;;;;;;6.98;44.20;94601.06;4208350;28;20325;-56
2023/03/14 07:45:25;;;;;;;;;;;;;;;6.97;44.01;94594.22;4213794;28;19942;-54
2023/03/14 07:47:28;;;;;;;;;;;;;;;7.06;44.65;94595.19;4229831;28;19919;-57
2023/03/14 07:49:30;;;;;;;;;;;;;;;7.23;44.35;94596.25;4228404;28;19923;-57
2023/03/14 07:51:31;;;;;;;;;;;;;;;6.97;44.07;94596.84;4227329;28;19969;-57
2023/03/14 07:53:33;;;;;;;;;;;;;;;6.61;45.04;94600.16;4229429;28;19958;-61
2023/03/14 07:55:34;;;;;;;;;;;;;;;6.70;45.12;94596.72;4228693;28;19920;-57
2023/03/14 07:57:36;;;;;;;;;;;;;;;6.88;45.31;94595.06;4210478;28;19981;-58
2023/03/14 07:59:37;;;;;;;;;;;;;;;7.12;45.22;94593.78;4204736;28;19920;-54
2023/03/14 08:01:39;;;;;;;;;;;;;;;7.40;44.73;94594.69;4225244;28;20404;-54
2023/03/14 08:03:40;;;;;;;;;;;;;;;7.34;43.76;94588.25;4229223;28;19923;-56
2023/03/14 08:05:42;;;;;;;;;;;;;;;7.47;43.89;94584.50;4217244;28;20366;-57
2023/03/14 08:07:43;;;;;;;;;;;;;;;7.61;43.83;94584.03;4195902;28;20494;-56
2023/03/14 08:09:45;;;;;;;;;;;;;;;7.69;42.68;94589.34;4208758;28;19919;-53
2023/03/14 08:11:46;;;;;;;;;;;;;;;7.84;43.06;94591.50;4196480;28;19971;-60
2023/03/14 08:13:49;;;;;;;;;;;;;;;8.01;42.76;94582.88;4196658;28;19920;-56
2023/03/14 08:15:51;;;;;;;;;;;;;;;8.17;42.34;94583.06;4195571;28;19920;-56
2023/03/14 08:17:53;;;;;;;;;;;;;;;8.03;43.36;94582.75;4209538;28;20015;-54
2023/03/14 08:19:55;;;;;;;;;;;;;;;8.14;43.46;94588.56;4201107;28;20135;-57
2023/03/14 08:21:56;;;;;;;;;;;;;;;7.98;42.87;94584.00;4195502;28;19978;-54
2023/03/14 08:23:58;;;;;;;;;;;;;;;7.56;43.61;94583.66;4217931;28;19919;-54
2023/03/14 08:25:59;;;;;;;;;;;;;;;7.15;44.82;94581.28;4228927;28;19970;-54
2023/03/14 08:28:01;;;;;;;;;;;;;;;6.83;45.38;94586.03;4224479;28;20006;-53
2023/03/14 08:30:03;;;;;;;;;;;;;;;6.70;45.82;94588.91;4219838;28;19927;-54
2023/03/14 08:32:05;;;;;;;;;;;;;;;6.68;46.13;94589.03;4217629;28;19923;-54
2023/03/14 08:34:07;;;;;;;;;;;;;;;6.87;44.96;94583.00;4212466;28;20296;-55
2023/03/14 08:36:08;;;;;;;;;;;;;;;7.11;45.20;94576.50;4210026;28;19973;-57
2023/03/14 08:38:10;;;;;;;;;;;;;;;7.23;44.78;94575.41;4203975;28;20422;-59
2023/03/14 08:40:12;;;;;;;;;;;;;;;7.41;44.48;94575.47;4195861;28;19970;-55
2023/03/14 08:42:14;;;;;;;;;;;;;;;7.45;44.00;94562.97;4210402;28;20380;-55
2023/03/14 08:44:15;;;;;;;;;;;;;;;7.35;43.75;94560.41;4218848;28;19920;-56
2023/03/14 08:46:20;;;;;;;;;;;;;;;7.35;44.47;94561.22;4226210;28;19928;-55
2023/03/14 08:48:22;;;;;;;;;;;;;;;7.69;43.80;94562.47;4228938;28;19920;-56
2023/03/14 08:50:24;;;;;;;;;;;;;;;8.07;43.15;94550.19;4226617;28;20014;-53
2023/03/14 08:52:25;;;;;;;;;;;;;;;8.44;41.49;94549.25;4214389;28;19920;-58
2023/03/14 08:54:27;;;;;;;;;;;;;;;8.34;40.46;94546.69;4214659;28;19920;-56
2023/03/14 08:56:28;;;;;;;;;;;;;;;8.50;40.36;94539.03;4228347;28;19970;-57
2023/03/14 08:58:30;;;;;;;;;;;;;;;8.80;39.79;94531.75;4227726;28;19920;-58
2023/03/14 09:00:31;;;;;;;;;;;;;;;9.12;39.22;94533.78;4215409;28;19939;-56
2023/03/14 09:02:32;;;;;;;;;;;;;;;9.40;39.44;94531.81;4214334;28;20023;-60
2023/03/14 09:04:34;;;;;;;;;;;;;;;9.70;38.56;94524.41;4207147;28;19921;-52
2023/03/14 09:06:35;;;;;;;;;;;;;;;9.94;39.21;94521.06;4197995;28;19924;-55
2023/03/14 09:08:37;;;;;;;;;;;;;;;10.20;38.43;94510.47;4201567;28;19920;-55
2023/03/14 09:10:40;;;;;;;;;;;;;;;10.41;37.46;94501.34;4209494;28;20019;-58
2023/03/14 09:12:41;;;;;;;;;;;;;;;10.59;36.82;94501.22;4199875;28;19943;-55
2023/03/14 09:14:43;;;;;;;;;;;;;;;10.71;36.82;94501.69;4212269;28;19920;-56
2023/03/14 09:16:44;;;;;;;;;;;;;;;10.88;36.95;94502.50;4204508;28;20277;-55
2023/03/14 09:18:46;;;;;;;;;;;;;;;10.82;36.01;94496.13;4199415;28;19928;-54
2023/03/14 09:20:48;;;;;;;;;;;;;;;10.78;36.46;94490.41;4225806;28;19923;-54
2023/03/14 09:22:49;;;;;;;;;;;;;;;10.51;35.52;94483.69;4229115;28;19919;-55
2023/03/14 09:24:51;;;;;;;;;;;;;;;9.94;36.57;94484.44;4220202;28;20580;-53
2023/03/14 09:26:52;;;;;;;;;;;;;;;9.95;36.70;94480.00;4232122;28;20074;-55
2023/03/14 09:28:54;;;;;;;;;;;;;;;9.86;36.92;94483.59;4214008;28;19927;-53
2023/03/14 09:31:04;;;;;;;;;;;;;;;10.05;36.55;94470.22;4230761;28;20374;-56
2023/03/14 09:33:06;;;;;;;;;;;;;;;9.99;36.37;94468.25;4231792;28;20002;-55
2023/03/14 09:35:08;;;;;;;;;;;;;;;9.99;36.04;94465.63;4230945;28;19973;-55
2023/03/14 09:37:09;;;;;;;;;;;;;;;10.16;36.96;94454.19;4229483;28;20241;-56
2023/03/14 09:39:11;;;;;;;;;;;;;;;10.13;36.78;94448.44;4231909;28;20388;-51
2023/03/14 09:41:24;;;;;;;;;;;;;;;10.43;37.04;94457.50;4231205;28;19919;-54
2023/03/14 09:43:26;;;;;;;;;;;;;;;10.46;36.81;94446.72;4196892;28;19920;-56
2023/03/14 09:45:35;;;;;;;;;;;;;;;10.79;36.49;94444.84;4206204;28;19920;-56
2023/03/14 09:47:36;;;;;;;;;;;;;;;10.95;36.16;94444.03;4180601;28;19920;-53
2023/03/14 09:49:46;;;;;;;;;;;;;;;11.00;35.53;94439.09;4185609;28;19924;-53
2023/03/14 09:51:49;;;;;;;;;;;;;;;11.10;35.44;94432.81;4213856;28;19924;-57
2023/03/14 09:53:51;;;;;;;;;;;;;;;10.68;35.35;94426.88;4208966;28;19927;-54
2023/03/14 09:55:53;;;;;;;;;;;;;;;10.29;36.34;94419.69;4231528;28;20031;-58
2023/03/14 09:57:56;;;;;;;;;;;;;;;10.30;36.30;94420.50;4221734;28;20325;-57
2023/03/14 10:00:04;;;;;;;;;;;;;;;10.35;35.97;94413.81;4191508;28;19924;-54
2023/03/14 10:02:25;;;;;;;;;;;;;;;10.37;36.16;94408.41;4217442;28;20451;-55
2023/03/14 10:04:27;;;;;;;;;;;;;;;10.77;35.78;94409.31;4203004;28;20525;-55
2023/03/14 10:06:30;;;;;;;;;;;;;;;11.03;35.26;94404.69;4182957;28;19920;-54
2023/03/14 10:08:31;;;;;;;;;;;;;;;11.41;35.10;94404.84;4202913;28;19924;-55
2023/03/14 10:10:33;;;;;;;;;;;;;;;11.67;34.51;94393.25;4208485;28;20349;-53
2023/03/14 10:12:35;;;;;;;;;;;;;;;11.80;34.17;94396.09;4217523;28;19950;-59
2023/03/14 10:14:37;;;;;;;;;;;;;;;12.05;33.89;94386.28;4208382;28;19920;-55
2023/03/14 10:16:43;;;;;;;;;;;;;;;12.19;33.63;94379.44;4215445;28;20006;-57
2023/03/14 10:18:45;;;;;;;;;;;;;;;12.35;33.48;94382.97;4209748;28;20388;-56
2023/03/14 10:20:47;;;;;;;;;;;;;;;12.43;32.63;94373.19;4224605;28;19946;-57
2023/03/14 10:22:49;;;;;;;;;;;;;;;12.38;32.63;94369.44;4223131;28;19943;-56
2023/03/14 10:24:56;;;;;;;;;;;;;;;12.46;33.03;94361.50;4193582;28;20327;-57
2023/03/14 10:27:05;;;;;;;;;;;;;;;12.41;32.24;94358.56;4217711;28;20023;-52
2023/03/14 10:29:13;;;;;;;;;;;;;;;12.09;32.97;94355.25;4224051;28;20284;-62
2023/03/14 10:31:15;;;;;;;;;;;;;;;12.30;31.96;94344.06;4224055;28;20366;-57
2023/03/14 10:33:20;;;;;;;;;;;;;;;12.54;32.42;94348.28;4228115;28;19949;-54
2023/03/14 10:35:22;;;;;;;;;;;;;;;12.74;32.55;94339.88;4224171;28;20449;-58
2023/03/14 10:37:25;;;;;;;;;;;;;;;12.84;33.09;94327.25;4221149;28;19926;-54
2023/03/14 10:39:29;;;;;;;;;;;;;;;13.09;32.17;94323.34;4206921;28;19920;-55
2023/03/14 10:41:30;;;;;;;;;;;;;;;13.22;32.23;94327.94;4204517;28;20413;-57
2023/03/14 10:43:33;;;;;;;;;;;;;;;13.37;32.02;94314.78;4220760;28;19920;-57